sensor_id;sensor_type;location;lat;lon;timestamp;P1;durP1;ratioP1;P2;durP2;ratioP2
25567;SDS011;13455;51.480;7.594;2024-01-30T00:01:15;13.80;;;9.40;;
25567;SDS011;13455;51.480;7.594;2024-01-30T00:03:41;16.53;;;9.27;;
25567;SDS011;13455;51.480;7.594;2024-01-30T00:06:07;15.33;;;9.60;;
25567;SDS011;13455;51.480;7.594;2024-01-30T00:08:33;14.80;;;9.80;;
25567;SDS011;13455;51.480;7.594;2024-01-30T00:10:59;16.50;;;10.47;;
25567;SDS011;13455;51.480;7.594;2024-01-30T00:13:26;14.50;;;9.75;;
25567;SDS011;13455;51.480;7.594;2024-01-30T00:15:52;14.85;;;10.10;;
25567;SDS011;13455;51.480;7.594;2024-01-30T00:18:17;15.07;;;9.93;;
25567;SDS011;13455;51.480;7.594;2024-01-30T00:20:43;16.55;;;10.18;;
25567;SDS011;13455;51.480;7.594;2024-01-30T00:23:09;15.45;;;9.68;;
25567;SDS011;13455;51.480;7.594;2024-01-30T00:25:34;15.00;;;9.98;;
25567;SDS011;13455;51.480;7.594;2024-01-30T00:28:00;16.92;;;10.00;;
25567;SDS011;13455;51.480;7.594;2024-01-30T00:30:26;16.63;;;10.88;;
25567;SDS011;13455;51.480;7.594;2024-01-30T00:32:53;17.38;;;10.43;;
25567;SDS011;13455;51.480;7.594;2024-01-30T00:35:18;15.75;;;10.90;;
25567;SDS011;13455;51.480;7.594;2024-01-30T00:37:44;19.57;;;11.07;;
25567;SDS011;13455;51.480;7.594;2024-01-30T00:40:10;17.13;;;11.10;;
25567;SDS011;13455;51.480;7.594;2024-01-30T00:42:40;17.40;;;11.50;;
25567;SDS011;13455;51.480;7.594;2024-01-30T00:45:11;15.35;;;11.00;;
25567;SDS011;13455;51.480;7.594;2024-01-30T00:47:38;18.10;;;11.20;;
25567;SDS011;13455;51.480;7.594;2024-01-30T00:50:03;18.50;;;11.02;;
25567;SDS011;13455;51.480;7.594;2024-01-30T00:52:30;17.70;;;10.90;;
25567;SDS011;13455;51.480;7.594;2024-01-30T00:54:55;19.00;;;11.23;;
25567;SDS011;13455;51.480;7.594;2024-01-30T00:57:21;17.10;;;11.70;;
25567;SDS011;13455;51.480;7.594;2024-01-30T00:59:46;19.37;;;11.40;;
25567;SDS011;13455;51.480;7.594;2024-01-30T01:02:12;15.52;;;11.10;;
25567;SDS011;13455;51.480;7.594;2024-01-30T01:04:38;17.38;;;10.63;;
25567;SDS011;13455;51.480;7.594;2024-01-30T01:07:04;17.77;;;10.60;;
25567;SDS011;13455;51.480;7.594;2024-01-30T01:09:30;16.88;;;10.63;;
25567;SDS011;13455;51.480;7.594;2024-01-30T01:11:55;17.80;;;9.90;;
25567;SDS011;13455;51.480;7.594;2024-01-30T01:14:21;17.40;;;10.30;;
25567;SDS011;13455;51.480;7.594;2024-01-30T01:16:46;16.10;;;10.00;;
25567;SDS011;13455;51.480;7.594;2024-01-30T01:19:12;15.80;;;9.93;;
25567;SDS011;13455;51.480;7.594;2024-01-30T01:21:37;18.27;;;10.40;;
25567;SDS011;13455;51.480;7.594;2024-01-30T01:24:04;17.08;;;10.18;;
25567;SDS011;13455;51.480;7.594;2024-01-30T01:26:30;15.27;;;9.82;;
25567;SDS011;13455;51.480;7.594;2024-01-30T01:28:56;15.73;;;10.18;;
25567;SDS011;13455;51.480;7.594;2024-01-30T01:31:22;15.48;;;9.50;;
25567;SDS011;13455;51.480;7.594;2024-01-30T01:33:49;16.85;;;9.93;;
25567;SDS011;13455;51.480;7.594;2024-01-30T01:36:15;17.52;;;9.80;;
25567;SDS011;13455;51.480;7.594;2024-01-30T01:38:41;15.70;;;10.00;;
25567;SDS011;13455;51.480;7.594;2024-01-30T01:41:07;15.48;;;9.95;;
25567;SDS011;13455;51.480;7.594;2024-01-30T01:43:33;16.95;;;9.68;;
25567;SDS011;13455;51.480;7.594;2024-01-30T01:45:59;14.90;;;9.88;;
25567;SDS011;13455;51.480;7.594;2024-01-30T01:48:26;16.10;;;10.15;;
25567;SDS011;13455;51.480;7.594;2024-01-30T01:50:52;16.25;;;10.02;;
25567;SDS011;13455;51.480;7.594;2024-01-30T01:53:18;17.10;;;10.07;;
25567;SDS011;13455;51.480;7.594;2024-01-30T01:55:45;14.57;;;9.70;;
25567;SDS011;13455;51.480;7.594;2024-01-30T01:58:11;17.95;;;9.65;;
25567;SDS011;13455;51.480;7.594;2024-01-30T02:00:37;16.55;;;10.05;;
25567;SDS011;13455;51.480;7.594;2024-01-30T02:03:06;15.57;;;10.20;;
25567;SDS011;13455;51.480;7.594;2024-01-30T02:05:32;17.07;;;9.90;;
25567;SDS011;13455;51.480;7.594;2024-01-30T02:07:58;17.48;;;10.00;;
25567;SDS011;13455;51.480;7.594;2024-01-30T02:10:24;16.30;;;10.00;;
25567;SDS011;13455;51.480;7.594;2024-01-30T02:12:50;17.57;;;10.37;;
25567;SDS011;13455;51.480;7.594;2024-01-30T02:15:16;18.98;;;10.40;;
25567;SDS011;13455;51.480;7.594;2024-01-30T02:17:42;17.45;;;11.15;;
25567;SDS011;13455;51.480;7.594;2024-01-30T02:20:08;18.95;;;11.57;;
25567;SDS011;13455;51.480;7.594;2024-01-30T02:22:34;17.50;;;11.40;;
25567;SDS011;13455;51.480;7.594;2024-01-30T02:25:02;20.30;;;11.40;;
25567;SDS011;13455;51.480;7.594;2024-01-30T02:27:28;20.02;;;11.35;;
25567;SDS011;13455;51.480;7.594;2024-01-30T02:29:54;18.13;;;11.30;;
25567;SDS011;13455;51.480;7.594;2024-01-30T02:32:20;19.45;;;11.18;;
25567;SDS011;13455;51.480;7.594;2024-01-30T02:34:46;15.90;;;10.80;;
25567;SDS011;13455;51.480;7.594;2024-01-30T02:37:12;18.57;;;10.73;;
25567;SDS011;13455;51.480;7.594;2024-01-30T02:39:38;18.05;;;10.73;;
25567;SDS011;13455;51.480;7.594;2024-01-30T02:42:04;16.45;;;10.50;;
25567;SDS011;13455;51.480;7.594;2024-01-30T02:44:30;16.07;;;10.07;;
25567;SDS011;13455;51.480;7.594;2024-01-30T02:46:56;17.17;;;10.07;;
25567;SDS011;13455;51.480;7.594;2024-01-30T02:49:22;16.77;;;9.95;;
25567;SDS011;13455;51.480;7.594;2024-01-30T02:51:48;16.93;;;10.10;;
25567;SDS011;13455;51.480;7.594;2024-01-30T02:54:14;16.42;;;9.88;;
25567;SDS011;13455;51.480;7.594;2024-01-30T02:56:40;17.55;;;10.13;;
25567;SDS011;13455;51.480;7.594;2024-01-30T02:59:06;16.60;;;10.48;;
25567;SDS011;13455;51.480;7.594;2024-01-30T03:01:32;17.98;;;10.23;;
25567;SDS011;13455;51.480;7.594;2024-01-30T03:03:58;15.75;;;9.90;;
25567;SDS011;13455;51.480;7.594;2024-01-30T03:06:24;16.88;;;10.32;;
25567;SDS011;13455;51.480;7.594;2024-01-30T03:08:50;14.43;;;9.60;;
25567;SDS011;13455;51.480;7.594;2024-01-30T03:11:16;16.95;;;9.85;;
25567;SDS011;13455;51.480;7.594;2024-01-30T03:13:41;14.80;;;9.50;;
25567;SDS011;13455;51.480;7.594;2024-01-30T03:16:08;17.02;;;9.88;;
25567;SDS011;13455;51.480;7.594;2024-01-30T03:18:34;16.23;;;9.73;;
25567;SDS011;13455;51.480;7.594;2024-01-30T03:21:00;17.98;;;9.85;;
25567;SDS011;13455;51.480;7.594;2024-01-30T03:23:26;15.00;;;9.80;;
25567;SDS011;13455;51.480;7.594;2024-01-30T03:25:52;15.32;;;9.80;;
25567;SDS011;13455;51.480;7.594;2024-01-30T03:28:18;15.73;;;9.93;;
25567;SDS011;13455;51.480;7.594;2024-01-30T03:30:44;20.33;;;10.93;;
25567;SDS011;13455;51.480;7.594;2024-01-30T03:33:10;18.17;;;11.18;;
25567;SDS011;13455;51.480;7.594;2024-01-30T03:35:36;15.70;;;10.50;;
25567;SDS011;13455;51.480;7.594;2024-01-30T03:38:02;17.08;;;10.25;;
25567;SDS011;13455;51.480;7.594;2024-01-30T03:40:28;18.58;;;10.50;;
25567;SDS011;13455;51.480;7.594;2024-01-30T03:42:54;18.77;;;11.18;;
25567;SDS011;13455;51.480;7.594;2024-01-30T03:45:20;18.77;;;10.93;;
25567;SDS011;13455;51.480;7.594;2024-01-30T03:47:46;17.10;;;11.00;;
25567;SDS011;13455;51.480;7.594;2024-01-30T03:50:12;20.40;;;11.27;;
25567;SDS011;13455;51.480;7.594;2024-01-30T03:52:38;18.87;;;10.57;;
25567;SDS011;13455;51.480;7.594;2024-01-30T03:55:04;16.83;;;9.88;;
25567;SDS011;13455;51.480;7.594;2024-01-30T03:57:30;16.58;;;9.98;;
25567;SDS011;13455;51.480;7.594;2024-01-30T03:59:56;15.73;;;9.48;;
25567;SDS011;13455;51.480;7.594;2024-01-30T04:02:22;15.75;;;9.55;;
25567;SDS011;13455;51.480;7.594;2024-01-30T04:04:48;15.88;;;9.40;;
25567;SDS011;13455;51.480;7.594;2024-01-30T04:07:14;15.57;;;9.30;;
25567;SDS011;13455;51.480;7.594;2024-01-30T04:09:40;17.60;;;9.68;;
25567;SDS011;13455;51.480;7.594;2024-01-30T04:12:06;16.40;;;10.00;;
25567;SDS011;13455;51.480;7.594;2024-01-30T04:14:32;18.88;;;10.50;;
25567;SDS011;13455;51.480;7.594;2024-01-30T04:16:58;20.85;;;10.98;;
25567;SDS011;13455;51.480;7.594;2024-01-30T04:19:24;18.87;;;9.90;;
25567;SDS011;13455;51.480;7.594;2024-01-30T04:21:50;18.73;;;10.75;;
25567;SDS011;13455;51.480;7.594;2024-01-30T04:24:16;19.05;;;10.93;;
25567;SDS011;13455;51.480;7.594;2024-01-30T04:26:43;21.75;;;11.05;;
25567;SDS011;13455;51.480;7.594;2024-01-30T04:29:09;22.63;;;11.07;;
25567;SDS011;13455;51.480;7.594;2024-01-30T04:31:38;19.75;;;10.82;;
25567;SDS011;13455;51.480;7.594;2024-01-30T04:34:04;20.10;;;10.47;;
25567;SDS011;13455;51.480;7.594;2024-01-30T04:36:30;19.50;;;10.10;;
25567;SDS011;13455;51.480;7.594;2024-01-30T04:38:56;18.25;;;10.00;;
25567;SDS011;13455;51.480;7.594;2024-01-30T04:41:22;16.70;;;9.70;;
25567;SDS011;13455;51.480;7.594;2024-01-30T04:43:48;15.82;;;8.98;;
25567;SDS011;13455;51.480;7.594;2024-01-30T04:46:14;14.50;;;8.68;;
25567;SDS011;13455;51.480;7.594;2024-01-30T04:48:40;16.17;;;8.43;;
25567;SDS011;13455;51.480;7.594;2024-01-30T04:51:06;14.48;;;8.40;;
25567;SDS011;13455;51.480;7.594;2024-01-30T04:53:32;13.55;;;8.38;;
25567;SDS011;13455;51.480;7.594;2024-01-30T04:55:58;15.93;;;8.90;;
25567;SDS011;13455;51.480;7.594;2024-01-30T04:58:24;15.53;;;9.00;;
25567;SDS011;13455;51.480;7.594;2024-01-30T05:00:50;15.23;;;8.30;;
25567;SDS011;13455;51.480;7.594;2024-01-30T05:03:17;14.75;;;8.55;;
25567;SDS011;13455;51.480;7.594;2024-01-30T05:05:43;16.48;;;8.38;;
25567;SDS011;13455;51.480;7.594;2024-01-30T05:08:09;13.38;;;8.07;;
25567;SDS011;13455;51.480;7.594;2024-01-30T05:10:35;14.82;;;8.70;;
25567;SDS011;13455;51.480;7.594;2024-01-30T05:13:01;12.88;;;8.20;;
25567;SDS011;13455;51.480;7.594;2024-01-30T05:15:27;11.68;;;7.50;;
25567;SDS011;13455;51.480;7.594;2024-01-30T05:17:53;11.98;;;7.72;;
25567;SDS011;13455;51.480;7.594;2024-01-30T05:20:19;15.90;;;7.70;;
25567;SDS011;13455;51.480;7.594;2024-01-30T05:22:45;13.47;;;7.77;;
25567;SDS011;13455;51.480;7.594;2024-01-30T05:25:12;13.13;;;7.72;;
25567;SDS011;13455;51.480;7.594;2024-01-30T05:27:38;14.07;;;7.50;;
25567;SDS011;13455;51.480;7.594;2024-01-30T05:30:05;13.15;;;7.50;;
25567;SDS011;13455;51.480;7.594;2024-01-30T05:32:31;12.98;;;7.80;;
25567;SDS011;13455;51.480;7.594;2024-01-30T05:34:57;13.02;;;7.25;;
25567;SDS011;13455;51.480;7.594;2024-01-30T05:37:23;12.23;;;7.47;;
25567;SDS011;13455;51.480;7.594;2024-01-30T05:39:49;11.70;;;7.30;;
25567;SDS011;13455;51.480;7.594;2024-01-30T05:42:15;12.85;;;7.88;;
25567;SDS011;13455;51.480;7.594;2024-01-30T05:44:42;12.18;;;7.70;;
25567;SDS011;13455;51.480;7.594;2024-01-30T05:47:08;14.48;;;7.95;;
25567;SDS011;13455;51.480;7.594;2024-01-30T05:49:34;12.98;;;7.97;;
25567;SDS011;13455;51.480;7.594;2024-01-30T05:52:01;13.30;;;7.47;;
25567;SDS011;13455;51.480;7.594;2024-01-30T05:54:27;14.45;;;7.80;;
25567;SDS011;13455;51.480;7.594;2024-01-30T05:56:53;11.75;;;7.28;;
25567;SDS011;13455;51.480;7.594;2024-01-30T05:59:19;11.80;;;7.35;;
25567;SDS011;13455;51.480;7.594;2024-01-30T06:01:46;12.65;;;7.47;;
25567;SDS011;13455;51.480;7.594;2024-01-30T06:04:12;11.95;;;7.10;;
25567;SDS011;13455;51.480;7.594;2024-01-30T06:06:38;10.95;;;7.15;;
25567;SDS011;13455;51.480;7.594;2024-01-30T06:09:04;12.45;;;7.18;;
25567;SDS011;13455;51.480;7.594;2024-01-30T06:11:30;13.02;;;7.15;;
25567;SDS011;13455;51.480;7.594;2024-01-30T06:13:56;10.18;;;7.07;;
25567;SDS011;13455;51.480;7.594;2024-01-30T06:16:22;13.32;;;7.10;;
25567;SDS011;13455;51.480;7.594;2024-01-30T06:18:48;12.70;;;7.35;;
25567;SDS011;13455;51.480;7.594;2024-01-30T06:21:14;15.98;;;8.10;;
25567;SDS011;13455;51.480;7.594;2024-01-30T06:23:40;12.60;;;8.07;;
25567;SDS011;13455;51.480;7.594;2024-01-30T06:26:06;12.32;;;7.95;;
25567;SDS011;13455;51.480;7.594;2024-01-30T06:28:33;13.57;;;8.18;;
25567;SDS011;13455;51.480;7.594;2024-01-30T06:31:00;13.60;;;7.80;;
25567;SDS011;13455;51.480;7.594;2024-01-30T06:33:26;12.77;;;7.72;;
25567;SDS011;13455;51.480;7.594;2024-01-30T06:35:52;14.07;;;7.85;;
25567;SDS011;13455;51.480;7.594;2024-01-30T06:38:18;12.55;;;7.30;;
25567;SDS011;13455;51.480;7.594;2024-01-30T06:40:44;11.97;;;7.30;;
25567;SDS011;13455;51.480;7.594;2024-01-30T06:43:10;12.68;;;7.47;;
25567;SDS011;13455;51.480;7.594;2024-01-30T06:45:36;13.73;;;7.32;;
25567;SDS011;13455;51.480;7.594;2024-01-30T06:48:02;12.07;;;6.97;;
25567;SDS011;13455;51.480;7.594;2024-01-30T06:50:29;12.52;;;7.43;;
25567;SDS011;13455;51.480;7.594;2024-01-30T06:52:55;11.23;;;7.03;;
25567;SDS011;13455;51.480;7.594;2024-01-30T06:55:21;12.07;;;7.35;;
25567;SDS011;13455;51.480;7.594;2024-01-30T06:57:47;12.32;;;7.07;;
25567;SDS011;13455;51.480;7.594;2024-01-30T07:00:13;14.23;;;7.35;;
25567;SDS011;13455;51.480;7.594;2024-01-30T07:02:40;12.45;;;7.18;;
25567;SDS011;13455;51.480;7.594;2024-01-30T07:05:06;14.48;;;7.47;;
25567;SDS011;13455;51.480;7.594;2024-01-30T07:07:32;10.45;;;7.20;;
25567;SDS011;13455;51.480;7.594;2024-01-30T07:09:58;11.40;;;7.20;;
25567;SDS011;13455;51.480;7.594;2024-01-30T07:12:24;11.23;;;6.70;;
25567;SDS011;13455;51.480;7.594;2024-01-30T07:14:51;12.82;;;7.13;;
25567;SDS011;13455;51.480;7.594;2024-01-30T07:17:17;11.68;;;6.60;;
25567;SDS011;13455;51.480;7.594;2024-01-30T07:19:43;12.00;;;6.93;;
25567;SDS011;13455;51.480;7.594;2024-01-30T07:22:09;12.10;;;7.03;;
25567;SDS011;13455;51.480;7.594;2024-01-30T07:24:35;11.32;;;6.95;;
25567;SDS011;13455;51.480;7.594;2024-01-30T07:27:01;10.75;;;6.47;;
25567;SDS011;13455;51.480;7.594;2024-01-30T07:29:27;10.90;;;6.37;;
25567;SDS011;13455;51.480;7.594;2024-01-30T07:31:53;10.85;;;7.00;;
25567;SDS011;13455;51.480;7.594;2024-01-30T07:34:19;10.45;;;6.57;;
25567;SDS011;13455;51.480;7.594;2024-01-30T07:36:45;10.02;;;6.53;;
25567;SDS011;13455;51.480;7.594;2024-01-30T07:39:12;11.57;;;6.70;;
25567;SDS011;13455;51.480;7.594;2024-01-30T07:41:38;11.57;;;6.90;;
25567;SDS011;13455;51.480;7.594;2024-01-30T07:44:04;10.95;;;6.43;;
25567;SDS011;13455;51.480;7.594;2024-01-30T07:46:30;12.25;;;6.90;;
25567;SDS011;13455;51.480;7.594;2024-01-30T07:48:56;12.73;;;6.85;;
25567;SDS011;13455;51.480;7.594;2024-01-30T07:51:22;15.20;;;7.28;;
25567;SDS011;13455;51.480;7.594;2024-01-30T07:53:48;16.57;;;8.30;;
25567;SDS011;13455;51.480;7.594;2024-01-30T07:56:14;14.32;;;8.20;;
25567;SDS011;13455;51.480;7.594;2024-01-30T07:58:41;14.35;;;8.20;;
25567;SDS011;13455;51.480;7.594;2024-01-30T08:01:06;14.70;;;8.25;;
25567;SDS011;13455;51.480;7.594;2024-01-30T08:03:32;13.80;;;7.60;;
25567;SDS011;13455;51.480;7.594;2024-01-30T08:05:59;14.07;;;7.60;;
25567;SDS011;13455;51.480;7.594;2024-01-30T08:08:25;13.05;;;7.47;;
25567;SDS011;13455;51.480;7.594;2024-01-30T08:10:52;12.57;;;7.18;;
25567;SDS011;13455;51.480;7.594;2024-01-30T08:13:18;13.80;;;7.50;;
25567;SDS011;13455;51.480;7.594;2024-01-30T08:15:44;12.75;;;7.50;;
25567;SDS011;13455;51.480;7.594;2024-01-30T08:18:10;13.30;;;7.28;;
25567;SDS011;13455;51.480;7.594;2024-01-30T08:20:36;13.77;;;7.43;;
25567;SDS011;13455;51.480;7.594;2024-01-30T08:23:02;11.73;;;7.10;;
25567;SDS011;13455;51.480;7.594;2024-01-30T08:25:27;13.93;;;7.20;;
25567;SDS011;13455;51.480;7.594;2024-01-30T08:27:54;12.50;;;6.70;;
25567;SDS011;13455;51.480;7.594;2024-01-30T08:30:19;13.37;;;6.90;;
25567;SDS011;13455;51.480;7.594;2024-01-30T08:32:45;12.00;;;6.70;;
25567;SDS011;13455;51.480;7.594;2024-01-30T08:35:10;11.30;;;6.43;;
25567;SDS011;13455;51.480;7.594;2024-01-30T08:37:38;11.53;;;6.20;;
25567;SDS011;13455;51.480;7.594;2024-01-30T08:40:04;13.07;;;6.17;;
25567;SDS011;13455;51.480;7.594;2024-01-30T08:42:30;9.63;;;5.90;;
25567;SDS011;13455;51.480;7.594;2024-01-30T08:44:56;9.82;;;6.00;;
25567;SDS011;13455;51.480;7.594;2024-01-30T08:47:21;10.80;;;5.95;;
25567;SDS011;13455;51.480;7.594;2024-01-30T08:49:47;10.03;;;6.10;;
25567;SDS011;13455;51.480;7.594;2024-01-30T08:52:12;8.97;;;5.80;;
25567;SDS011;13455;51.480;7.594;2024-01-30T08:54:38;11.77;;;6.90;;
25567;SDS011;13455;51.480;7.594;2024-01-30T08:57:04;10.40;;;6.13;;
25567;SDS011;13455;51.480;7.594;2024-01-30T08:59:30;10.57;;;6.00;;
25567;SDS011;13455;51.480;7.594;2024-01-30T09:01:55;9.23;;;6.30;;
25567;SDS011;13455;51.480;7.594;2024-01-30T09:04:23;11.38;;;6.07;;
25567;SDS011;13455;51.480;7.594;2024-01-30T09:06:49;9.25;;;5.80;;
25567;SDS011;13455;51.480;7.594;2024-01-30T09:09:15;10.05;;;6.10;;
25567;SDS011;13455;51.480;7.594;2024-01-30T09:11:40;10.23;;;5.82;;
25567;SDS011;13455;51.480;7.594;2024-01-30T09:14:06;10.52;;;6.13;;
25567;SDS011;13455;51.480;7.594;2024-01-30T09:16:32;9.93;;;5.90;;
25567;SDS011;13455;51.480;7.594;2024-01-30T09:18:57;11.90;;;6.40;;
25567;SDS011;13455;51.480;7.594;2024-01-30T09:21:23;10.87;;;6.20;;
25567;SDS011;13455;51.480;7.594;2024-01-30T09:23:49;11.37;;;6.97;;
25567;SDS011;13455;51.480;7.594;2024-01-30T09:26:14;13.20;;;7.23;;
25567;SDS011;13455;51.480;7.594;2024-01-30T09:28:40;14.40;;;8.37;;
25567;SDS011;13455;51.480;7.594;2024-01-30T09:31:10;14.68;;;8.63;;
25567;SDS011;13455;51.480;7.594;2024-01-30T09:33:36;13.32;;;7.60;;
25567;SDS011;13455;51.480;7.594;2024-01-30T09:36:02;12.32;;;7.30;;
25567;SDS011;13455;51.480;7.594;2024-01-30T09:38:28;14.00;;;7.20;;
25567;SDS011;13455;51.480;7.594;2024-01-30T09:40:54;15.38;;;7.10;;
25567;SDS011;13455;51.480;7.594;2024-01-30T09:43:23;15.23;;;7.85;;
25567;SDS011;13455;51.480;7.594;2024-01-30T09:45:49;13.50;;;8.23;;
25567;SDS011;13455;51.480;7.594;2024-01-30T09:48:15;13.73;;;8.25;;
25567;SDS011;13455;51.480;7.594;2024-01-30T09:50:41;12.10;;;8.03;;
25567;SDS011;13455;51.480;7.594;2024-01-30T09:53:07;12.43;;;7.90;;
25567;SDS011;13455;51.480;7.594;2024-01-30T09:55:34;14.30;;;8.07;;
25567;SDS011;13455;51.480;7.594;2024-01-30T09:58:01;13.77;;;8.35;;
25567;SDS011;13455;51.480;7.594;2024-01-30T10:00:27;16.70;;;10.20;;
25567;SDS011;13455;51.480;7.594;2024-01-30T10:02:53;18.45;;;11.05;;
25567;SDS011;13455;51.480;7.594;2024-01-30T10:05:19;18.43;;;10.47;;
25567;SDS011;13455;51.480;7.594;2024-01-30T10:07:54;15.77;;;9.43;;
25567;SDS011;13455;51.480;7.594;2024-01-30T10:10:23;17.70;;;8.48;;
25567;SDS011;13455;51.480;7.594;2024-01-30T10:12:49;13.25;;;7.88;;
25567;SDS011;13455;51.480;7.594;2024-01-30T10:15:15;12.77;;;7.33;;
25567;SDS011;13455;51.480;7.594;2024-01-30T10:17:42;13.15;;;7.50;;
25567;SDS011;13455;51.480;7.594;2024-01-30T10:20:08;12.87;;;7.07;;
25567;SDS011;13455;51.480;7.594;2024-01-30T10:22:34;14.20;;;8.00;;
25567;SDS011;13455;51.480;7.594;2024-01-30T10:25:00;20.55;;;10.85;;
25567;SDS011;13455;51.480;7.594;2024-01-30T10:27:26;19.35;;;11.68;;
25567;SDS011;13455;51.480;7.594;2024-01-30T10:29:54;19.48;;;12.68;;
25567;SDS011;13455;51.480;7.594;2024-01-30T10:32:20;20.98;;;12.80;;
25567;SDS011;13455;51.480;7.594;2024-01-30T10:34:46;19.55;;;10.15;;
25567;SDS011;13455;51.480;7.594;2024-01-30T10:37:12;15.45;;;9.63;;
25567;SDS011;13455;51.480;7.594;2024-01-30T10:39:40;16.67;;;9.98;;
25567;SDS011;13455;51.480;7.594;2024-01-30T10:42:12;14.20;;;9.50;;
25567;SDS011;13455;51.480;7.594;2024-01-30T10:44:54;16.88;;;9.07;;
25567;SDS011;13455;51.480;7.594;2024-01-30T10:47:28;15.27;;;9.63;;
25567;SDS011;13455;51.480;7.594;2024-01-30T10:49:54;16.83;;;9.23;;
25567;SDS011;13455;51.480;7.594;2024-01-30T10:52:21;15.65;;;8.68;;
25567;SDS011;13455;51.480;7.594;2024-01-30T10:54:49;14.43;;;8.52;;
25567;SDS011;13455;51.480;7.594;2024-01-30T10:57:16;15.98;;;9.88;;
25567;SDS011;13455;51.480;7.594;2024-01-30T10:59:42;17.23;;;9.18;;
25567;SDS011;13455;51.480;7.594;2024-01-30T11:02:09;13.52;;;7.90;;
25567;SDS011;13455;51.480;7.594;2024-01-30T11:04:36;13.35;;;7.35;;
25567;SDS011;13455;51.480;7.594;2024-01-30T11:07:02;14.27;;;7.20;;
25567;SDS011;13455;51.480;7.594;2024-01-30T11:09:40;14.20;;;6.95;;
25567;SDS011;13455;51.480;7.594;2024-01-30T11:12:12;11.45;;;6.50;;
25567;SDS011;13455;51.480;7.594;2024-01-30T11:14:38;11.45;;;6.70;;
25567;SDS011;13455;51.480;7.594;2024-01-30T11:17:05;10.82;;;5.93;;
25567;SDS011;13455;51.480;7.594;2024-01-30T11:19:31;12.05;;;5.55;;
25567;SDS011;13455;51.480;7.594;2024-01-30T11:21:57;9.88;;;5.40;;
25567;SDS011;13455;51.480;7.594;2024-01-30T11:24:23;8.93;;;5.30;;
25567;SDS011;13455;51.480;7.594;2024-01-30T11:26:49;9.60;;;4.97;;
25567;SDS011;13455;51.480;7.594;2024-01-30T11:29:24;11.45;;;5.78;;
25567;SDS011;13455;51.480;7.594;2024-01-30T11:31:54;11.90;;;5.43;;
25567;SDS011;13455;51.480;7.594;2024-01-30T11:34:20;10.33;;;5.07;;
25567;SDS011;13455;51.480;7.594;2024-01-30T11:37:07;11.45;;;4.90;;
25567;SDS011;13455;51.480;7.594;2024-01-30T11:39:35;11.02;;;5.10;;
25567;SDS011;13455;51.480;7.594;2024-01-30T11:42:01;10.60;;;4.70;;
25567;SDS011;13455;51.480;7.594;2024-01-30T11:44:29;8.68;;;5.10;;
25567;SDS011;13455;51.480;7.594;2024-01-30T11:46:55;9.55;;;5.05;;
25567;SDS011;13455;51.480;7.594;2024-01-30T11:49:21;9.32;;;5.20;;
25567;SDS011;13455;51.480;7.594;2024-01-30T11:51:48;10.60;;;5.30;;
25567;SDS011;13455;51.480;7.594;2024-01-30T11:54:14;10.80;;;4.95;;
25567;SDS011;13455;51.480;7.594;2024-01-30T11:56:41;8.60;;;4.80;;
25567;SDS011;13455;51.480;7.594;2024-01-30T11:59:08;8.65;;;4.97;;
25567;SDS011;13455;51.480;7.594;2024-01-30T12:01:34;7.90;;;4.97;;
25567;SDS011;13455;51.480;7.594;2024-01-30T12:03:59;15.00;;;5.43;;
25567;SDS011;13455;51.480;7.594;2024-01-30T12:06:25;14.73;;;6.03;;
25567;SDS011;13455;51.480;7.594;2024-01-30T12:11:28;12.25;;;5.60;;
25567;SDS011;13455;51.480;7.594;2024-01-30T12:13:55;11.45;;;5.32;;
25567;SDS011;13455;51.480;7.594;2024-01-30T12:16:21;16.52;;;8.15;;
25567;SDS011;13455;51.480;7.594;2024-01-30T12:18:47;10.80;;;5.23;;
25567;SDS011;13455;51.480;7.594;2024-01-30T12:21:15;12.60;;;5.17;;
25567;SDS011;13455;51.480;7.594;2024-01-30T12:23:42;11.13;;;5.20;;
25567;SDS011;13455;51.480;7.594;2024-01-30T12:26:08;15.93;;;7.90;;
25567;SDS011;13455;51.480;7.594;2024-01-30T12:28:33;15.03;;;6.90;;
25567;SDS011;13455;51.480;7.594;2024-01-30T12:31:05;15.67;;;5.10;;
25567;SDS011;13455;51.480;7.594;2024-01-30T12:33:31;11.50;;;5.28;;
25567;SDS011;13455;51.480;7.594;2024-01-30T12:35:57;13.25;;;5.25;;
25567;SDS011;13455;51.480;7.594;2024-01-30T12:38:26;13.20;;;5.50;;
25567;SDS011;13455;51.480;7.594;2024-01-30T12:40:55;12.45;;;5.28;;
25567;SDS011;13455;51.480;7.594;2024-01-30T12:43:21;12.75;;;5.50;;
25567;SDS011;13455;51.480;7.594;2024-01-30T12:45:48;14.70;;;5.13;;
25567;SDS011;13455;51.480;7.594;2024-01-30T12:48:14;12.43;;;5.35;;
25567;SDS011;13455;51.480;7.594;2024-01-30T12:50:40;13.15;;;5.30;;
25567;SDS011;13455;51.480;7.594;2024-01-30T12:53:06;13.53;;;5.50;;
25567;SDS011;13455;51.480;7.594;2024-01-30T12:55:32;14.33;;;5.67;;
25567;SDS011;13455;51.480;7.594;2024-01-30T12:57:58;13.27;;;5.77;;
25567;SDS011;13455;51.480;7.594;2024-01-30T13:00:23;13.43;;;5.87;;
25567;SDS011;13455;51.480;7.594;2024-01-30T13:02:49;14.18;;;6.00;;
25567;SDS011;13455;51.480;7.594;2024-01-30T13:05:15;13.95;;;5.50;;
25567;SDS011;13455;51.480;7.594;2024-01-30T13:07:40;12.00;;;5.60;;
25567;SDS011;13455;51.480;7.594;2024-01-30T13:10:06;12.80;;;5.97;;
25567;SDS011;13455;51.480;7.594;2024-01-30T13:12:32;13.73;;;5.87;;
25567;SDS011;13455;51.480;7.594;2024-01-30T13:14:58;16.60;;;6.40;;
25567;SDS011;13455;51.480;7.594;2024-01-30T13:17:26;12.32;;;5.82;;
25567;SDS011;13455;51.480;7.594;2024-01-30T13:19:52;13.82;;;6.03;;
25567;SDS011;13455;51.480;7.594;2024-01-30T13:22:19;12.85;;;6.22;;
25567;SDS011;13455;51.480;7.594;2024-01-30T13:24:46;17.02;;;6.90;;
25567;SDS011;13455;51.480;7.594;2024-01-30T13:27:12;15.73;;;6.28;;
25567;SDS011;13455;51.480;7.594;2024-01-30T13:29:38;13.90;;;6.20;;
25567;SDS011;13455;51.480;7.594;2024-01-30T13:32:04;13.00;;;6.50;;
25567;SDS011;13455;51.480;7.594;2024-01-30T13:34:29;12.98;;;6.28;;
25567;SDS011;13455;51.480;7.594;2024-01-30T13:36:55;15.07;;;6.60;;
25567;SDS011;13455;51.480;7.594;2024-01-30T13:39:21;15.48;;;6.43;;
25567;SDS011;13455;51.480;7.594;2024-01-30T13:41:47;13.45;;;6.15;;
25567;SDS011;13455;51.480;7.594;2024-01-30T13:44:13;14.73;;;6.25;;
25567;SDS011;13455;51.480;7.594;2024-01-30T13:46:41;14.98;;;6.78;;
25567;SDS011;13455;51.480;7.594;2024-01-30T13:49:07;12.13;;;6.32;;
25567;SDS011;13455;51.480;7.594;2024-01-30T13:51:32;13.93;;;6.70;;
25567;SDS011;13455;51.480;7.594;2024-01-30T13:53:58;12.30;;;6.60;;
25567;SDS011;13455;51.480;7.594;2024-01-30T13:56:23;13.87;;;6.50;;
25567;SDS011;13455;51.480;7.594;2024-01-30T13:58:50;14.17;;;7.00;;
25567;SDS011;13455;51.480;7.594;2024-01-30T14:01:16;14.77;;;6.90;;
25567;SDS011;13455;51.480;7.594;2024-01-30T14:03:42;15.48;;;7.15;;
25567;SDS011;13455;51.480;7.594;2024-01-30T14:06:08;14.07;;;7.00;;
25567;SDS011;13455;51.480;7.594;2024-01-30T14:08:34;13.70;;;6.88;;
25567;SDS011;13455;51.480;7.594;2024-01-30T14:11:00;16.20;;;7.10;;
25567;SDS011;13455;51.480;7.594;2024-01-30T14:13:26;11.85;;;6.70;;
25567;SDS011;13455;51.480;7.594;2024-01-30T14:15:52;13.90;;;6.75;;
25567;SDS011;13455;51.480;7.594;2024-01-30T14:18:19;14.90;;;7.18;;
25567;SDS011;13455;51.480;7.594;2024-01-30T14:20:45;12.32;;;6.93;;
25567;SDS011;13455;51.480;7.594;2024-01-30T14:23:11;15.57;;;7.03;;
25567;SDS011;13455;51.480;7.594;2024-01-30T14:25:36;14.70;;;7.07;;
25567;SDS011;13455;51.480;7.594;2024-01-30T14:28:02;14.70;;;7.37;;